Time;durP1;ratioP1;P1;durP2;ratioP2;P2;SDS_P1;SDS_P2;PMS_P1;PMS_P2;Temp;Humidity;BMP_temperature;BMP_pressure;BME280_temperature;BME280_humidity;BME280_pressure;Samples;Min_cycle;Max_cycle;Signal;HPM_P1;HPM_P2
2022/12/10 00:01:20;;;;;;;;;;;;;;;;;;5083373;28;19924;-61
2022/12/10 00:03:46;;;;;;;;;;;;;;;;;;5076852;28;21230;-61
2022/12/10 00:06:12;;;;;;;;;;;;;;;;;;5075177;28;19925;-66
2022/12/10 00:08:38;;;;;;;;;;;;;;;;;;5072569;28;20042;-61
2022/12/10 00:11:04;;;;;;;;;;;;;;;;;;5076221;28;19928;-61
2022/12/10 00:13:30;;;;;;;;;;;;;;;;;;5072822;28;19943;-61
2022/12/10 00:15:55;;;;;;;;;;;;;;;;;;5074927;28;19932;-61
2022/12/10 00:18:20;;;;;;;;;;;;;;;;;;5074651;28;19981;-60
2022/12/10 00:20:46;;;;;;;;;;;;;;;;;;5076995;28;20002;-61
2022/12/10 00:23:11;;;;;;;;;;;;;;;;;;5052687;28;20039;-62
2022/12/10 00:25:36;;;;;;;;;;;;;;;;;;5059144;28;19991;-62
2022/12/10 00:28:02;;;;;;;;;;;;;;;;;;5055216;28;19941;-62
2022/12/10 00:30:27;;;;;;;;;;;;;;;;;;5051225;28;20615;-64
2022/12/10 00:32:52;;;;;;;;;;;;;;;;;;5056600;28;19924;-61
2022/12/10 00:35:18;;;;;;;;;;;;;;;;;;5060108;28;20031;-61
2022/12/10 00:37:43;;;;;;;;;;;;;;;;;;5052589;28;19932;-61
2022/12/10 00:40:10;;;;;;;;;;;;;;;;;;5058163;28;20377;-62
2022/12/10 00:42:36;;;;;;;;;;;;;;;;;;5052808;28;20011;-61
2022/12/10 00:45:01;;;;;;;;;;;;;;;;;;5054443;28;19940;-62
2022/12/10 00:47:26;;;;;;;;;;;;;;;;;;5057189;28;20478;-62
2022/12/10 00:49:51;;;;;;;;;;;;;;;;;;5056085;28;19928;-61
2022/12/10 00:52:17;;;;;;;;;;;;;;;;;;5067924;28;19947;-60
2022/12/10 00:54:42;;;;;;;;;;;;;;;;;;5074907;28;19924;-61
2022/12/10 00:57:07;;;;;;;;;;;;;;;;;;5075450;28;19932;-61
2022/12/10 00:59:32;;;;;;;;;;;;;;;;;;5074779;28;19931;-61
2022/12/10 01:01:58;;;;;;;;;;;;;;;;;;5074893;28;20444;-60
2022/12/10 01:04:23;;;;;;;;;;;;;;;;;;5069255;28;20015;-62
2022/12/10 01:06:50;;;;;;;;;;;;;;;;;;5080151;28;19928;-62
2022/12/10 01:09:16;;;;;;;;;;;;;;;;;;5081244;28;20067;-62
2022/12/10 01:11:42;;;;;;;;;;;;;;;;;;5084250;28;19924;-61
2022/12/10 01:14:09;;;;;;;;;;;;;;;;;;5078061;28;19973;-62
2022/12/10 01:16:34;;;;;;;;;;;;;;;;;;5072056;28;19941;-61
2022/12/10 01:19:00;;;;;;;;;;;;;;;;;;5073344;28;19927;-61
2022/12/10 01:21:25;;;;;;;;;;;;;;;;;;5079987;28;19946;-62
2022/12/10 01:23:51;;;;;;;;;;;;;;;;;;5077361;28;19920;-61
2022/12/10 01:26:19;;;;;;;;;;;;;;;;;;5077128;28;19963;-61
2022/12/10 01:28:44;;;;;;;;;;;;;;;;;;5077877;28;20355;-61
2022/12/10 01:31:21;;;;;;;;;;;;;;;;;;5081358;28;20366;-61
2022/12/10 01:33:46;;;;;;;;;;;;;;;;;;5076622;28;19974;-61
2022/12/10 01:36:18;;;;;;;;;;;;;;;;;;5078452;28;19959;-62
2022/12/10 01:38:44;;;;;;;;;;;;;;;;;;5078640;28;19928;-61
2022/12/10 01:41:18;;;;;;;;;;;;;;;;;;5075998;28;19977;-61
2022/12/10 01:43:49;;;;;;;;;;;;;;;;;;5083431;28;19963;-61
2022/12/10 01:46:14;;;;;;;;;;;;;;;;;;5083378;28;19966;-61
2022/12/10 01:48:40;;;;;;;;;;;;;;;;;;5085620;28;20387;-62
2022/12/10 01:51:05;;;;;;;;;;;;;;;;;;5086896;28;19981;-62
2022/12/10 01:53:31;;;;;;;;;;;;;;;;;;5086451;28;19977;-60
2022/12/10 01:55:56;;;;;;;;;;;;;;;;;;5086078;28;19934;-61
2022/12/10 01:58:21;;;;;;;;;;;;;;;;;;5084734;28;19982;-61
2022/12/10 02:00:55;;;;;;;;;;;;;;;;;;5083616;28;19928;-61
2022/12/10 02:03:28;;;;;;;;;;;;;;;;;;5080762;28;19935;-62
2022/12/10 02:06:02;;;;;;;;;;;;;;;;;;5083292;28;19920;-63
2022/12/10 02:08:33;;;;;;;;;;;;;;;;;;5082341;28;19920;-61
2022/12/10 02:11:04;;;;;;;;;;;;;;;;;;5079541;28;19977;-60
2022/12/10 02:13:33;;;;;;;;;;;;;;;;;;5084533;28;20031;-61
2022/12/10 02:16:16;;;;;;;;;;;;;;;;;;5081158;28;20562;-61
2022/12/10 02:18:41;;;;;;;;;;;;;;;;;;5086008;28;19928;-61
2022/12/10 02:21:11;;;;;;;;;;;;;;;;;;5083198;28;19938;-61
2022/12/10 02:23:38;;;;;;;;;;;;;;;;;;5081316;28;19920;-61
2022/12/10 02:26:15;;;;;;;;;;;;;;;;;;5077553;28;19934;-61
2022/12/10 02:28:43;;;;;;;;;;;;;;;;;;5078511;28;20384;-61
2022/12/10 02:31:10;;;;;;;;;;;;;;;;;;5077158;28;20243;-61
2022/12/10 02:33:39;;;;;;;;;;;;;;;;;;5082672;28;20368;-60
2022/12/10 02:36:05;;;;;;;;;;;;;;;;;;5081607;28;19924;-61
2022/12/10 02:38:31;;;;;;;;;;;;;;;;;;5082270;28;19931;-63
2022/12/10 02:41:09;;;;;;;;;;;;;;;;;;5084009;28;20386;-60
2022/12/10 02:43:34;;;;;;;;;;;;;;;;;;5084950;28;19928;-61
2022/12/10 02:46:02;;;;;;;;;;;;;;;;;;5085478;28;20389;-61
2022/12/10 02:48:27;;;;;;;;;;;;;;;;;;5085949;28;19924;-60
2022/12/10 02:50:53;;;;;;;;;;;;;;;;;;5086767;28;19944;-61
2022/12/10 02:53:18;;;;;;;;;;;;;;;;;;5086840;28;20302;-61
2022/12/10 02:55:55;;;;;;;;;;;;;;;;;;5084641;28;19932;-60
2022/12/10 02:58:27;;;;;;;;;;;;;;;;;;5084764;28;20267;-61
2022/12/10 03:01:06;;;;;;;;;;;;;;;;;;5083503;28;19936;-62
2022/12/10 03:03:41;;;;;;;;;;;;;;;;;;5082506;28;20039;-61
2022/12/10 03:06:32;;;;;;;;;;;;;;;;;;5084175;28;20378;-63
2022/12/10 03:09:00;;;;;;;;;;;;;;;;;;5077316;28;20054;-60
2022/12/10 03:11:26;;;;;;;;;;;;;;;;;;5080327;28;19931;-61
2022/12/10 03:13:55;;;;;;;;;;;;;;;;;;5078037;28;19927;-62
2022/12/10 03:16:21;;;;;;;;;;;;;;;;;;5081323;28;20046;-61
2022/12/10 03:18:47;;;;;;;;;;;;;;;;;;5084145;28;19924;-62
2022/12/10 03:21:13;;;;;;;;;;;;;;;;;;5087052;28;19928;-61
2022/12/10 03:23:40;;;;;;;;;;;;;;;;;;5084054;28;19924;-61
2022/12/10 03:26:06;;;;;;;;;;;;;;;;;;5084200;28;19931;-62
2022/12/10 03:28:38;;;;;;;;;;;;;;;;;;5080982;28;19932;-60
2022/12/10 03:31:04;;;;;;;;;;;;;;;;;;5077026;28;20056;-61
2022/12/10 03:33:29;;;;;;;;;;;;;;;;;;5073365;28;20386;-61
2022/12/10 03:35:55;;;;;;;;;;;;;;;;;;5072534;28;20336;-62
2022/12/10 03:38:20;;;;;;;;;;;;;;;;;;5074297;28;19931;-61
2022/12/10 03:40:46;;;;;;;;;;;;;;;;;;5079154;28;19931;-67
2022/12/10 03:43:12;;;;;;;;;;;;;;;;;;5084489;28;19925;-61
2022/12/10 03:45:38;;;;;;;;;;;;;;;;;;5084763;28;19924;-62
2022/12/10 03:48:04;;;;;;;;;;;;;;;;;;5078983;28;20007;-61
2022/12/10 03:50:29;;;;;;;;;;;;;;;;;;5085937;28;20331;-63
2022/12/10 03:52:54;;;;;;;;;;;;;;;;;;5084065;28;19928;-61
2022/12/10 03:55:20;;;;;;;;;;;;;;;;;;5085972;28;19932;-61
2022/12/10 03:57:45;;;;;;;;;;;;;;;;;;5086605;28;19928;-60
2022/12/10 04:00:11;;;;;;;;;;;;;;;;;;5083129;28;19927;-61
2022/12/10 04:02:37;;;;;;;;;;;;;;;;;;5083400;28;19920;-62
2022/12/10 04:05:04;;;;;;;;;;;;;;;;;;5081495;28;19975;-61
2022/12/10 04:07:30;;;;;;;;;;;;;;;;;;5083226;28;19928;-62
2022/12/10 04:09:55;;;;;;;;;;;;;;;;;;5086498;28;19928;-60
2022/12/10 04:12:20;;;;;;;;;;;;;;;;;;5076641;28;19943;-62
2022/12/10 04:17:31;;;;;;;;;;;;;;;;;;5077191;28;20439;-61
2022/12/10 04:19:56;;;;;;;;;;;;;;;;;;5075035;28;19928;-60
2022/12/10 04:27:49;;;;;;;;;;;;;;;;;;5080335;28;19934;-61
2022/12/10 04:30:15;;;;;;;;;;;;;;;;;;5074673;28;19928;-61
2022/12/10 04:32:40;;;;;;;;;;;;;;;;;;5071998;28;19954;-62
2022/12/10 04:35:05;;;;;;;;;;;;;;;;;;5076458;28;19928;-62
2022/12/10 04:37:31;;;;;;;;;;;;;;;;;;5076164;28;19951;-61
2022/12/10 04:39:56;;;;;;;;;;;;;;;;;;5075423;28;19932;-61
2022/12/10 04:42:22;;;;;;;;;;;;;;;;;;5076978;28;20379;-61
2022/12/10 04:44:47;;;;;;;;;;;;;;;;;;5081950;28;19920;-62
2022/12/10 04:47:13;;;;;;;;;;;;;;;;;;5077755;28;19924;-61
2022/12/10 04:49:38;;;;;;;;;;;;;;;;;;5079946;28;19971;-61
2022/12/10 04:52:05;;;;;;;;;;;;;;;;;;5080768;28;20668;-61
2022/12/10 04:54:30;;;;;;;;;;;;;;;;;;5084850;28;20283;-61
2022/12/10 04:56:55;;;;;;;;;;;;;;;;;;5080191;28;19935;-59
2022/12/10 04:59:21;;;;;;;;;;;;;;;;;;5078236;28;20126;-60
2022/12/10 05:01:46;;;;;;;;;;;;;;;;;;5079618;28;20304;-61
2022/12/10 05:04:13;;;;;;;;;;;;;;;;;;5082498;28;19928;-68
2022/12/10 05:06:38;;;;;;;;;;;;;;;;;;5085181;28;19934;-68
2022/12/10 05:09:04;;;;;;;;;;;;;;;;;;5079436;28;20022;-68
2022/12/10 05:11:30;;;;;;;;;;;;;;;;;;5079681;28;19924;-69
2022/12/10 05:13:56;;;;;;;;;;;;;;;;;;5081722;28;20431;-69
2022/12/10 05:16:22;;;;;;;;;;;;;;;;;;5085429;28;19924;-70
2022/12/10 05:18:47;;;;;;;;;;;;;;;;;;5084329;28;19924;-71
2022/12/10 05:21:14;;;;;;;;;;;;;;;;;;5084018;28;20276;-67
2022/12/10 05:23:40;;;;;;;;;;;;;;;;;;5079103;28;19920;-69
2022/12/10 05:26:10;;;;;;;;;;;;;;;;;;5083869;28;20275;-69
2022/12/10 05:28:38;;;;;;;;;;;;;;;;;;5081671;28;22830;-68
2022/12/10 05:31:03;;;;;;;;;;;;;;;;;;5079913;28;19924;-69
2022/12/10 05:33:29;;;;;;;;;;;;;;;;;;5078647;28;19947;-67
2022/12/10 05:35:55;;;;;;;;;;;;;;;;;;5079437;28;19923;-69
2022/12/10 05:38:20;;;;;;;;;;;;;;;;;;5086193;28;19948;-68
2022/12/10 05:40:46;;;;;;;;;;;;;;;;;;5078440;28;21196;-69
2022/12/10 05:43:11;;;;;;;;;;;;;;;;;;5084173;28;19932;-69
2022/12/10 05:45:36;;;;;;;;;;;;;;;;;;5084410;28;19978;-69
2022/12/10 05:48:01;;;;;;;;;;;;;;;;;;5084947;28;19920;-68
2022/12/10 05:50:27;;;;;;;;;;;;;;;;;;5083752;28;20404;-68
2022/12/10 05:52:52;;;;;;;;;;;;;;;;;;5086577;28;19977;-69
2022/12/10 05:55:18;;;;;;;;;;;;;;;;;;5087966;28;20064;-69
2022/12/10 05:57:43;;;;;;;;;;;;;;;;;;5088195;28;19928;-69
2022/12/10 06:00:09;;;;;;;;;;;;;;;;;;5082906;28;19927;-69
2022/12/10 06:02:34;;;;;;;;;;;;;;;;;;5084838;28;19989;-70
2022/12/10 06:05:00;;;;;;;;;;;;;;;;;;5085040;28;19931;-68
2022/12/10 06:07:25;;;;;;;;;;;;;;;;;;5083821;28;19928;-65
2022/12/10 06:09:50;;;;;;;;;;;;;;;;;;5085769;28;19939;-64
2022/12/10 06:12:16;;;;;;;;;;;;;;;;;;5081527;28;19977;-65
2022/12/10 06:14:41;;;;;;;;;;;;;;;;;;5078882;28;20011;-64
2022/12/10 06:17:06;;;;;;;;;;;;;;;;;;5081222;28;20022;-66
2022/12/10 06:19:32;;;;;;;;;;;;;;;;;;5083162;28;19928;-65
2022/12/10 06:21:58;;;;;;;;;;;;;;;;;;5081318;28;19999;-65
2022/12/10 06:24:24;;;;;;;;;;;;;;;;;;5084400;28;19928;-65
2022/12/10 06:26:49;;;;;;;;;;;;;;;;;;5082194;28;19928;-65
2022/12/10 06:29:14;;;;;;;;;;;;;;;;;;5074794;28;19935;-66
2022/12/10 06:31:39;;;;;;;;;;;;;;;;;;5080251;28;20042;-66
2022/12/10 06:34:05;;;;;;;;;;;;;;;;;;5081069;28;20025;-65
2022/12/10 06:36:30;;;;;;;;;;;;;;;;;;5075174;28;19943;-65
2022/12/10 06:38:56;;;;;;;;;;;;;;;;;;5077952;28;20027;-64
2022/12/10 06:41:21;;;;;;;;;;;;;;;;;;5077690;28;20058;-66
2022/12/10 06:43:47;;;;;;;;;;;;;;;;;;5081509;28;19940;-66
2022/12/10 06:46:13;;;;;;;;;;;;;;;;;;5081622;28;20426;-64
2022/12/10 06:48:39;;;;;;;;;;;;;;;;;;5078688;28;20374;-66
2022/12/10 06:51:04;;;;;;;;;;;;;;;;;;5083246;28;20398;-66
2022/12/10 06:53:30;;;;;;;;;;;;;;;;;;5083065;28;19962;-67
2022/12/10 06:55:57;;;;;;;;;;;;;;;;;;5079121;28;19928;-66
2022/12/10 06:58:22;;;;;;;;;;;;;;;;;;5081455;28;19924;-65
2022/12/10 07:00:48;;;;;;;;;;;;;;;;;;5074010;28;19924;-67
2022/12/10 07:03:13;;;;;;;;;;;;;;;;;;5081415;28;19928;-66
2022/12/10 07:05:38;;;;;;;;;;;;;;;;;;5079529;28;19920;-66
2022/12/10 07:08:04;;;;;;;;;;;;;;;;;;5080824;28;19932;-65
2022/12/10 07:10:29;;;;;;;;;;;;;;;;;;5077847;28;19927;-65
2022/12/10 07:12:54;;;;;;;;;;;;;;;;;;5078874;28;19932;-65
2022/12/10 07:15:19;;;;;;;;;;;;;;;;;;5076641;28;19928;-66
2022/12/10 07:17:45;;;;;;;;;;;;;;;;;;5079818;28;20386;-64
2022/12/10 07:20:11;;;;;;;;;;;;;;;;;;5072116;28;20387;-66
2022/12/10 07:22:36;;;;;;;;;;;;;;;;;;5079216;28;19932;-64
2022/12/10 07:25:03;;;;;;;;;;;;;;;;;;5083145;28;20395;-64
2022/12/10 07:27:30;;;;;;;;;;;;;;;;;;5077478;28;19924;-67
2022/12/10 07:29:56;;;;;;;;;;;;;;;;;;5076306;28;19924;-65
2022/12/10 07:32:21;;;;;;;;;;;;;;;;;;5074316;28;20286;-66
2022/12/10 07:34:46;;;;;;;;;;;;;;;;;;5075826;28;20426;-65
2022/12/10 07:37:11;;;;;;;;;;;;;;;;;;5078961;28;19928;-65
2022/12/10 07:39:37;;;;;;;;;;;;;;;;;;5073962;28;19932;-65
2022/12/10 07:42:03;;;;;;;;;;;;;;;;;;5077369;28;20042;-66
2022/12/10 07:44:28;;;;;;;;;;;;;;;;;;5085717;28;19928;-65
2022/12/10 07:46:54;;;;;;;;;;;;;;;;;;5083578;28;19939;-66
2022/12/10 07:49:19;;;;;;;;;;;;;;;;;;5083470;28;19928;-67
2022/12/10 07:51:48;;;;;;;;;;;;;;;;;;5081251;28;20035;-66
2022/12/10 07:54:14;;;;;;;;;;;;;;;;;;5074494;28;20006;-68
2022/12/10 07:56:40;;;;;;;;;;;;;;;;;;5074263;28;19920;-68
2022/12/10 07:59:05;;;;;;;;;;;;;;;;;;5077339;28;19981;-65
2022/12/10 08:01:30;;;;;;;;;;;;;;;;;;5077014;28;19932;-65
2022/12/10 08:03:56;;;;;;;;;;;;;;;;;;5073764;28;20050;-65
2022/12/10 08:06:22;;;;;;;;;;;;;;;;;;5074523;28;19978;-66
2022/12/10 08:08:47;;;;;;;;;;;;;;;;;;5083866;28;19924;-66
2022/12/10 08:11:13;;;;;;;;;;;;;;;;;;5082997;28;19928;-67
2022/12/10 08:13:39;;;;;;;;;;;;;;;;;;5079472;28;19932;-67
2022/12/10 08:16:09;;;;;;;;;;;;;;;;;;5075224;28;20343;-67
2022/12/10 08:18:35;;;;;;;;;;;;;;;;;;5076756;28;20045;-68
2022/12/10 08:21:05;;;;;;;;;;;;;;;;;;5076379;28;19936;-67
2022/12/10 08:23:30;;;;;;;;;;;;;;;;;;5072840;28;19955;-67
2022/12/10 08:25:55;;;;;;;;;;;;;;;;;;5069087;28;19932;-67
2022/12/10 08:28:20;;;;;;;;;;;;;;;;;;5073856;28;20012;-67
2022/12/10 08:30:47;;;;;;;;;;;;;;;;;;5079783;28;20019;-66
2022/12/10 08:33:12;;;;;;;;;;;;;;;;;;5073760;28;19931;-67
2022/12/10 08:35:37;;;;;;;;;;;;;;;;;;5073478;28;20403;-67
2022/12/10 08:38:03;;;;;;;;;;;;;;;;;;5082859;28;19932;-66
2022/12/10 08:40:28;;;;;;;;;;;;;;;;;;5074063;28;19936;-66
2022/12/10 08:42:53;;;;;;;;;;;;;;;;;;5071313;28;19939;-67
2022/12/10 08:45:19;;;;;;;;;;;;;;;;;;5074134;28;19966;-68
2022/12/10 08:47:44;;;;;;;;;;;;;;;;;;5078652;28;19928;-68
2022/12/10 08:50:09;;;;;;;;;;;;;;;;;;5077148;28;19935;-66
2022/12/10 08:52:34;;;;;;;;;;;;;;;;;;5076195;28;19991;-67
2022/12/10 08:55:00;;;;;;;;;;;;;;;;;;5078817;28;19985;-67
2022/12/10 08:57:25;;;;;;;;;;;;;;;;;;5077517;28;19993;-67
2022/12/10 08:59:50;;;;;;;;;;;;;;;;;;5076425;28;19927;-69
2022/12/10 09:02:15;;;;;;;;;;;;;;;;;;5078004;28;20438;-67
2022/12/10 09:04:42;;;;;;;;;;;;;;;;;;5079640;28;20331;-69
2022/12/10 09:07:07;;;;;;;;;;;;;;;;;;5075338;28;20638;-67
2022/12/10 09:09:33;;;;;;;;;;;;;;;;;;5079144;28;19927;-66
2022/12/10 09:11:58;;;;;;;;;;;;;;;;;;5075677;28;19931;-67
2022/12/10 09:14:23;;;;;;;;;;;;;;;;;;5074643;28;20015;-66
2022/12/10 09:16:49;;;;;;;;;;;;;;;;;;5078083;28;19924;-67
2022/12/10 09:19:14;;;;;;;;;;;;;;;;;;5079193;28;20294;-66
2022/12/10 09:21:39;;;;;;;;;;;;;;;;;;5070833;28;20014;-66
2022/12/10 09:24:05;;;;;;;;;;;;;;;;;;5076872;28;20014;-67
2022/12/10 09:26:31;;;;;;;;;;;;;;;;;;5080152;28;20013;-67
2022/12/10 09:28:57;;;;;;;;;;;;;;;;;;5078416;28;19932;-68
2022/12/10 09:31:23;;;;;;;;;;;;;;;;;;5079362;28;20350;-52
2022/12/10 09:33:49;;;;;;;;;;;;;;;;;;5080056;28;20310;-50
2022/12/10 09:36:15;;;;;;;;;;;;;;;;;;5076319;28;19935;-52
2022/12/10 09:38:41;;;;;;;;;;;;;;;;;;5077523;28;19924;-50
2022/12/10 09:41:09;;;;;;;;;;;;;;;;;;5095511;28;19954;-55
2022/12/10 09:43:35;;;;;;;;;;;;;;;;;;5086687;28;20390;-56
2022/12/10 09:46:00;;;;;;;;;;;;;;;;;;5086860;28;19984;-53
2022/12/10 09:48:35;;;;;;;;;;;;;;;;;;5085840;28;19928;-52
2022/12/10 09:51:12;;;;;;;;;;;;;;;;;;5086592;28;20201;-54
2022/12/10 09:53:38;;;;;;;;;;;;;;;;;;5086507;28;19935;-55
2022/12/10 09:56:03;;;;;;;;;;;;;;;;;;5078485;28;19928;-58
2022/12/10 09:58:29;;;;;;;;;;;;;;;;;;5081083;28;20298;-52
2022/12/10 10:00:59;;;;;;;;;;;;;;;;;;5080521;28;20047;-53
2022/12/10 10:03:25;;;;;;;;;;;;;;;;;;5077782;28;19976;-57
2022/12/10 10:05:51;;;;;;;;;;;;;;;;;;5080110;28;19928;-50
2022/12/10 10:08:19;;;;;;;;;;;;;;;;;;5073359;28;20424;-54
2022/12/10 10:10:45;;;;;;;;;;;;;;;;;;5076384;28;19939;-54
2022/12/10 10:13:28;;;;;;;;;;;;;;;;;;5073999;28;19963;-53
2022/12/10 10:15:54;;;;;;;;;;;;;;;;;;5085443;28;19935;-54
2022/12/10 10:18:26;;;;;;;;;;;;;;;;;;5083741;28;19928;-55
2022/12/10 10:20:52;;;;;;;;;;;;;;;;;;5078643;28;19972;-53
2022/12/10 10:23:17;;;;;;;;;;;;;;;;;;5076876;28;20357;-53
2022/12/10 10:25:43;;;;;;;;;;;;;;;;;;5070672;28;20026;-49
2022/12/10 10:28:13;;;;;;;;;;;;;;;;;;5077484;28;19935;-53
2022/12/10 10:30:41;;;;;;;;;;;;;;;;;;5073352;28;19924;-49
2022/12/10 10:33:08;;;;;;;;;;;;;;;;;;5072526;28;19924;-53
2022/12/10 10:35:41;;;;;;;;;;;;;;;;;;5075871;28;19939;-56
2022/12/10 10:38:07;;;;;;;;;;;;;;;;;;5067732;28;20002;-53
2022/12/10 10:40:40;;;;;;;;;;;;;;;;;;5075207;28;19938;-55
2022/12/10 10:43:05;;;;;;;;;;;;;;;;;;5071219;28;20449;-54
2022/12/10 10:45:36;;;;;;;;;;;;;;;;;;5074912;28;20062;-54
2022/12/10 10:48:13;;;;;;;;;;;;;;;;;;5073498;28;20007;-52
2022/12/10 10:50:40;;;;;;;;;;;;;;;;;;5077600;28;19943;-54
2022/12/10 10:53:21;;;;;;;;;;;;;;;;;;5076560;28;19930;-52
2022/12/10 10:55:48;;;;;;;;;;;;;;;;;;5075935;28;21428;-55
2022/12/10 10:58:20;;;;;;;;;;;;;;;;;;5077513;28;19932;-54
2022/12/10 11:01:01;;;;;;;;;;;;;;;;;;5076454;28;19931;-54
2022/12/10 11:03:28;;;;;;;;;;;;;;;;;;5067091;28;20009;-54
2022/12/10 11:05:53;;;;;;;;;;;;;;;;;;5080440;28;19923;-56
2022/12/10 11:08:20;;;;;;;;;;;;;;;;;;5083053;28;19968;-52
2022/12/10 11:10:55;;;;;;;;;;;;;;;;;;5077562;28;20006;-52
2022/12/10 11:13:28;;;;;;;;;;;;;;;;;;5077252;28;20035;-54
2022/12/10 11:15:59;;;;;;;;;;;;;;;;;;5078207;28;20031;-50
2022/12/10 11:18:26;;;;;;;;;;;;;;;;;;5080929;28;19924;-51
2022/12/10 11:21:00;;;;;;;;;;;;;;;;;;5080723;28;20292;-50
2022/12/10 11:23:30;;;;;;;;;;;;;;;;;;5076435;28;19962;-54
2022/12/10 11:26:02;;;;;;;;;;;;;;;;;;5073530;28;20019;-53
2022/12/10 11:28:37;;;;;;;;;;;;;;;;;;5075916;28;19924;-53
2022/12/10 11:31:11;;;;;;;;;;;;;;;;;;5075004;28;19931;-53
2022/12/10 11:33:49;;;;;;;;;;;;;;;;;;5079071;28;19955;-54
2022/12/10 11:36:24;;;;;;;;;;;;;;;;;;5081096;28;19939;-53
2022/12/10 11:38:49;;;;;;;;;;;;;;;;;;5076956;28;20279;-62
2022/12/10 11:41:14;;;;;;;;;;;;;;;;;;5079325;28;19950;-54
2022/12/10 11:43:40;;;;;;;;;;;;;;;;;;5078811;28;19953;-54
2022/12/10 11:46:05;;;;;;;;;;;;;;;;;;5078282;28;20730;-61
2022/12/10 11:48:31;;;;;;;;;;;;;;;;;;5078489;28;19936;-61
2022/12/10 11:51:02;;;;;;;;;;;;;;;;;;5086639;28;19930;-63
2022/12/10 11:53:27;;;;;;;;;;;;;;;;;;5081800;28;20382;-63
2022/12/10 11:56:07;;;;;;;;;;;;;;;;;;5084656;28;19935;-53
2022/12/10 11:58:55;;;;;;;;;;;;;;;;;;5080103;28;19981;-55
2022/12/10 12:01:29;;;;;;;;;;;;;;;;;;5082344;28;19971;-51
2022/12/10 12:03:55;;;;;;;;;;;;;;;;;;5084635;28;19940;-54
2022/12/10 12:06:38;;;;;;;;;;;;;;;;;;5085735;28;20314;-50
2022/12/10 12:09:07;;;;;;;;;;;;;;;;;;5083126;28;20314;-54
2022/12/10 12:11:35;;;;;;;;;;;;;;;;;;5086266;28;19920;-63
2022/12/10 12:14:04;;;;;;;;;;;;;;;;;;5084912;28;20065;-62
2022/12/10 12:16:40;;;;;;;;;;;;;;;;;;5085237;28;19949;-63
2022/12/10 12:19:10;;;;;;;;;;;;;;;;;;5081788;28;19986;-62
2022/12/10 12:21:36;;;;;;;;;;;;;;;;;;5085436;28;19928;-65
2022/12/10 12:24:03;;;;;;;;;;;;;;;;;;5083486;28;19924;-63
2022/12/10 12:26:31;;;;;;;;;;;;;;;;;;5085381;28;19920;-63
2022/12/10 12:29:10;;;;;;;;;;;;;;;;;;5081720;28;20027;-63
2022/12/10 12:31:38;;;;;;;;;;;;;;;;;;5082249;28;19977;-63
2022/12/10 12:34:22;;;;;;;;;;;;;;;;;;5081362;28;19932;-64
2022/12/10 12:36:48;;;;;;;;;;;;;;;;;;5085309;28;19935;-64
2022/12/10 12:39:18;;;;;;;;;;;;;;;;;;5084336;28;19932;-64
2022/12/10 12:41:46;;;;;;;;;;;;;;;;;;5085166;28;19931;-62
2022/12/10 12:44:29;;;;;;;;;;;;;;;;;;5084400;28;19930;-65
2022/12/10 12:46:54;;;;;;;;;;;;;;;;;;5104800;28;19939;-63
2022/12/10 12:49:24;;;;;;;;;;;;;;;;;;5081021;28;19928;-63
2022/12/10 12:51:56;;;;;;;;;;;;;;;;;;5080477;28;19928;-64
2022/12/10 12:54:21;;;;;;;;;;;;;;;;;;5077012;28;19928;-63
2022/12/10 12:57:05;;;;;;;;;;;;;;;;;;5082548;28;20007;-64
2022/12/10 12:59:57;;;;;;;;;;;;;;;;;;5069530;28;19932;-64
2022/12/10 13:02:46;;;;;;;;;;;;;;;;;;5066584;28;19931;-67
2022/12/10 13:05:17;;;;;;;;;;;;;;;;;;5067405;28;19964;-64
2022/12/10 13:07:42;;;;;;;;;;;;;;;;;;5071512;28;19951;-63
2022/12/10 13:10:16;;;;;;;;;;;;;;;;;;5072197;28;20375;-66
2022/12/10 13:12:47;;;;;;;;;;;;;;;;;;5076118;28;20986;-57
2022/12/10 13:15:20;;;;;;;;;;;;;;;;;;5073771;28;19932;-56
2022/12/10 13:18:04;;;;;;;;;;;;;;;;;;5079997;28;19924;-55
2022/12/10 13:20:31;;;;;;;;;;;;;;;;;;5076689;28;20924;-52
2022/12/10 13:22:58;;;;;;;;;;;;;;;;;;5072912;28;19974;-54
2022/12/10 13:25:42;;;;;;;;;;;;;;;;;;5073687;28;19924;-54
2022/12/10 13:28:22;;;;;;;;;;;;;;;;;;5075012;28;20014;-59
2022/12/10 13:31:06;;;;;;;;;;;;;;;;;;5076153;28;19936;-56
2022/12/10 13:34:08;;;;;;;;;;;;;;;;;;5080723;28;20563;-60
2022/12/10 13:36:34;;;;;;;;;;;;;;;;;;5081250;28;20023;-60
2022/12/10 13:39:03;;;;;;;;;;;;;;;;;;5078006;28;19988;-61
2022/12/10 13:44:32;;;;;;;;;;;;;;;;;;5084856;28;20408;-62
2022/12/10 13:46:57;;;;;;;;;;;;;;;;;;5083464;28;19932;-60
2022/12/10 13:49:24;;;;;;;;;;;;;;;;;;5086508;28;19924;-60
2022/12/10 13:51:55;;;;;;;;;;;;;;;;;;5087628;28;19981;-59
2022/12/10 13:54:24;;;;;;;;;;;;;;;;;;5087547;28;19928;-60
2022/12/10 13:56:49;;;;;;;;;;;;;;;;;;5082375;28;20393;-60
2022/12/10 13:59:33;;;;;;;;;;;;;;;;;;5084992;28;20026;-60
2022/12/10 14:02:18;;;;;;;;;;;;;;;;;;5081830;28;20472;-62
2022/12/10 14:04:52;;;;;;;;;;;;;;;;;;5077736;28;19924;-62
2022/12/10 14:07:18;;;;;;;;;;;;;;;;;;5081559;28;20343;-58
2022/12/10 14:09:49;;;;;;;;;;;;;;;;;;5088025;28;19974;-57
2022/12/10 14:12:16;;;;;;;;;;;;;;;;;;5081756;28;20015;-64
2022/12/10 14:14:47;;;;;;;;;;;;;;;;;;5080011;28;19930;-63
2022/12/10 14:17:17;;;;;;;;;;;;;;;;;;5077710;28;20390;-66
2022/12/10 14:19:44;;;;;;;;;;;;;;;;;;5082548;28;19928;-61
2022/12/10 14:22:15;;;;;;;;;;;;;;;;;;5081989;28;20824;-61
2022/12/10 14:24:43;;;;;;;;;;;;;;;;;;5076582;28;20323;-65
2022/12/10 14:27:11;;;;;;;;;;;;;;;;;;5081631;28;20408;-64
2022/12/10 14:29:36;;;;;;;;;;;;;;;;;;5083442;28;19978;-64
2022/12/10 14:32:01;;;;;;;;;;;;;;;;;;5078529;28;20058;-64
2022/12/10 14:34:28;;;;;;;;;;;;;;;;;;5075376;28;19948;-66
2022/12/10 14:36:55;;;;;;;;;;;;;;;;;;5076288;28;20018;-64
2022/12/10 14:39:23;;;;;;;;;;;;;;;;;;5078441;28;19971;-62
2022/12/10 14:41:49;;;;;;;;;;;;;;;;;;5073015;28;19982;-60
2022/12/10 14:44:16;;;;;;;;;;;;;;;;;;5080438;28;19928;-66
2022/12/10 14:46:42;;;;;;;;;;;;;;;;;;5080848;28;19924;-65
2022/12/10 14:49:19;;;;;;;;;;;;;;;;;;5080232;28;19997;-64
2022/12/10 14:51:44;;;;;;;;;;;;;;;;;;5074521;28;20322;-64
2022/12/10 14:54:26;;;;;;;;;;;;;;;;;;5080214;28;19958;-63
2022/12/10 14:56:52;;;;;;;;;;;;;;;;;;5080428;28;19948;-63
2022/12/10 14:59:20;;;;;;;;;;;;;;;;;;5078658;28;19924;-62
2022/12/10 15:01:48;;;;;;;;;;;;;;;;;;5076500;28;19928;-65
2022/12/10 15:04:15;;;;;;;;;;;;;;;;;;5080228;28;20477;-62
2022/12/10 15:06:40;;;;;;;;;;;;;;;;;;5078991;28;19929;-65
2022/12/10 15:09:10;;;;;;;;;;;;;;;;;;5080551;28;19931;-64
2022/12/10 15:11:36;;;;;;;;;;;;;;;;;;5081884;28;19959;-65
2022/12/10 15:14:02;;;;;;;;;;;;;;;;;;5081668;28;20090;-65
2022/12/10 15:16:43;;;;;;;;;;;;;;;;;;5074932;28;20322;-63
2022/12/10 15:19:29;;;;;;;;;;;;;;;;;;5078761;28;20278;-65
2022/12/10 15:22:21;;;;;;;;;;;;;;;;;;5074092;28;20188;-64
2022/12/10 15:24:47;;;;;;;;;;;;;;;;;;5076619;28;20298;-64
2022/12/10 15:27:19;;;;;;;;;;;;;;;;;;5076919;28;19939;-66
2022/12/10 15:29:45;;;;;;;;;;;;;;;;;;5076741;28;20019;-63
2022/12/10 15:32:17;;;;;;;;;;;;;;;;;;5075477;28;19935;-63
2022/12/10 15:35:03;;;;;;;;;;;;;;;;;;5074659;28;19928;-64
2022/12/10 15:37:33;;;;;;;;;;;;;;;;;;5071415;28;19928;-63
2022/12/10 15:40:00;;;;;;;;;;;;;;;;;;5079882;28;19933;-65
2022/12/10 15:42:44;;;;;;;;;;;;;;;;;;5084372;28;19997;-60
2022/12/10 15:45:20;;;;;;;;;;;;;;;;;;5083608;28;19928;-60
2022/12/10 15:47:46;;;;;;;;;;;;;;;;;;5079254;28;19947;-59
2022/12/10 15:50:12;;;;;;;;;;;;;;;;;;5079160;28;19928;-61
2022/12/10 15:52:38;;;;;;;;;;;;;;;;;;5072888;28;19971;-55
2022/12/10 15:55:03;;;;;;;;;;;;;;;;;;5080665;28;19935;-57
2022/12/10 15:57:30;;;;;;;;;;;;;;;;;;5082496;28;19924;-52
2022/12/10 15:59:58;;;;;;;;;;;;;;;;;;5078103;28;19936;-55
2022/12/10 16:02:39;;;;;;;;;;;;;;;;;;5081737;28;19974;-67
2022/12/10 16:05:12;;;;;;;;;;;;;;;;;;5081076;28;19936;-69
2022/12/10 16:07:38;;;;;;;;;;;;;;;;;;5080369;28;19935;-60
2022/12/10 16:10:03;;;;;;;;;;;;;;;;;;5082332;28;19928;-60
2022/12/10 16:12:29;;;;;;;;;;;;;;;;;;5079039;28;19935;-59
2022/12/10 16:14:59;;;;;;;;;;;;;;;;;;5078645;28;19928;-59
2022/12/10 16:17:25;;;;;;;;;;;;;;;;;;5077284;28;19974;-59
2022/12/10 16:19:50;;;;;;;;;;;;;;;;;;5079664;28;20005;-61
2022/12/10 16:22:16;;;;;;;;;;;;;;;;;;5064443;28;20314;-62
2022/12/10 16:24:41;;;;;;;;;;;;;;;;;;5068250;28;19970;-61
2022/12/10 16:27:12;;;;;;;;;;;;;;;;;;5072689;28;20328;-60
2022/12/10 16:29:37;;;;;;;;;;;;;;;;;;5070908;28;20389;-62
2022/12/10 16:32:02;;;;;;;;;;;;;;;;;;5069312;28;19932;-63
2022/12/10 16:34:28;;;;;;;;;;;;;;;;;;5070888;28;19986;-61
2022/12/10 16:36:53;;;;;;;;;;;;;;;;;;5073562;28;19924;-63
2022/12/10 16:39:18;;;;;;;;;;;;;;;;;;5070900;28;20480;-63
2022/12/10 16:41:43;;;;;;;;;;;;;;;;;;5073375;28;19924;-60
2022/12/10 16:44:09;;;;;;;;;;;;;;;;;;5074730;28;20015;-60
2022/12/10 16:46:34;;;;;;;;;;;;;;;;;;5076521;28;19939;-61
2022/12/10 16:49:00;;;;;;;;;;;;;;;;;;5078302;28;20456;-61
2022/12/10 16:51:29;;;;;;;;;;;;;;;;;;5072586;28;19928;-61
2022/12/10 16:53:54;;;;;;;;;;;;;;;;;;5073928;28;19986;-61
2022/12/10 16:56:20;;;;;;;;;;;;;;;;;;5076340;28;19928;-63
2022/12/10 16:58:45;;;;;;;;;;;;;;;;;;5071249;28;19932;-61
2022/12/10 17:01:16;;;;;;;;;;;;;;;;;;5070606;28;19925;-65
2022/12/10 17:03:41;;;;;;;;;;;;;;;;;;5079910;28;19924;-64